Time;durP1;ratioP1;P1;durP2;ratioP2;P2;SDS_P1;SDS_P2;PMS_P1;PMS_P2;Temp;Humidity;BMP_temperature;BMP_pressure;BME280_temperature;BME280_humidity;BME280_pressure;Samples;Min_cycle;Max_cycle;Signal;HPM_P1;HPM_P2
2021/12/08 07:36:56;;;;;;;166.30;72.47;;;-0.90;99.90;;;;;;5123225;27;20395;-61
2021/12/08 07:39:43;;;;;;;136.37;59.80;;;-0.80;99.90;;;;;;5127767;28;20051;-61
2021/12/08 07:42:19;;;;;;;123.10;54.30;;;-0.40;99.90;;;;;;5098025;28;20031;-62
2021/12/08 07:44:51;;;;;;;121.70;53.73;;;0.20;99.90;;;;;;5118023;28;20517;-62
2021/12/08 07:47:23;;;;;;;148.03;64.17;;;1.80;99.90;;;;;;5126012;28;20102;-62
2021/12/08 07:49:58;;;;;;;117.57;54.53;;;3.20;99.90;;;;;;5128711;27;20337;-63
2021/12/08 07:52:30;;;;;;;147.03;67.03;;;4.20;99.90;;;;;;5126976;28;20042;-64
2021/12/08 07:54:56;;;;;;;169.18;78.00;;;4.80;98.80;;;;;;5112706;28;20518;-63
2021/12/08 07:57:33;;;;;;;142.38;66.15;;;5.30;96.70;;;;;;5113494;28;20034;-65
2021/12/08 08:00:07;;;;;;;178.50;82.07;;;6.50;96.10;;;;;;5115942;28;21690;-63
2021/12/08 08:02:33;;;;;;;215.70;98.70;;;7.10;92.10;;;;;;5099227;28;20114;-61
2021/12/08 08:05:05;;;;;;;212.25;96.40;;;6.80;90.80;;;;;;5129184;28;20415;-62
2021/12/08 08:07:32;;;;;;;174.57;83.57;;;7.80;89.00;;;;;;5126778;28;20028;-61
2021/12/08 08:10:02;;;;;;;149.48;72.03;;;8.50;85.80;;;;;;5125326;28;20026;-61
2021/12/08 08:12:33;;;;;;;129.82;65.45;;;8.80;83.70;;;;;;5116011;28;20073;-62
2021/12/08 08:15:03;;;;;;;108.65;57.80;;;8.60;82.00;;;;;;5123877;28;20110;-60
2021/12/08 08:17:36;;;;;;;97.90;51.88;;;8.00;82.50;;;;;;5127170;28;20052;-62
2021/12/08 08:20:25;;;;;;;117.53;62.85;;;8.30;85.30;;;;;;5127060;28;20030;-61
2021/12/08 08:22:53;;;;;;;102.07;53.15;;;7.60;82.20;;;;;;5127930;28;20023;-63
2021/12/08 08:25:22;;;;;;;92.80;51.13;;;6.40;87.90;;;;;;5128561;28;20023;-64
2021/12/08 08:27:48;;;;;;;86.05;46.92;;;6.40;91.30;;;;;;5125830;28;20027;-62
2021/12/08 08:30:19;;;;;;;86.60;46.88;;;6.60;91.40;;;;;;5122221;28;20016;-64
2021/12/08 08:32:48;;;;;;;91.07;48.13;;;6.20;93.20;;;;;;5118102;28;20019;-61
2021/12/08 08:35:38;;;;;;;84.60;46.15;;;5.80;94.70;;;;;;5124867;28;20558;-60
2021/12/08 08:38:11;;;;;;;77.10;42.78;;;6.70;95.70;;;;;;5125912;28;20027;-60
2021/12/08 08:40:41;;;;;;;91.25;48.05;;;6.60;93.20;;;;;;5124710;27;20028;-58
2021/12/08 08:43:09;;;;;;;72.90;41.42;;;6.40;94.20;;;;;;5125919;27;20031;-61
2021/12/08 08:45:47;;;;;;;80.13;43.40;;;5.90;95.40;;;;;;5117207;27;20107;-65
2021/12/08 08:48:16;;;;;;;94.63;50.50;;;6.40;97.20;;;;;;5112864;28;20031;-60
2021/12/08 08:50:51;;;;;;;122.80;61.70;;;7.10;93.00;;;;;;5107924;28;20076;-59
2021/12/08 08:53:18;;;;;;;131.07;65.60;;;7.20;92.00;;;;;;5114040;28;20489;-66
2021/12/08 08:56:16;;;;;;;114.93;60.10;;;7.00;91.50;;;;;;5112416;28;20039;-62
2021/12/08 08:58:45;;;;;;;125.07;65.03;;;6.70;93.50;;;;;;5104382;28;20019;-62
2021/12/08 09:01:24;;;;;;;124.25;68.13;;;6.80;94.40;;;;;;5114156;28;20042;-64
2021/12/08 09:03:59;;;;;;;157.32;83.15;;;6.90;94.90;;;;;;5111328;28;20027;-64
2021/12/08 09:06:31;;;;;;;156.05;79.93;;;6.80;93.40;;;;;;5112605;28;20135;-63
2021/12/08 09:09:02;;;;;;;156.27;82.90;;;6.80;93.70;;;;;;5114214;28;20028;-62
2021/12/08 09:11:34;;;;;;;169.02;88.78;;;6.90;93.30;;;;;;5112954;28;20032;-63
2021/12/08 09:14:34;;;;;;;147.35;80.82;;;7.20;94.20;;;;;;5110811;28;20028;-63
2021/12/08 09:17:12;;;;;;;154.65;81.88;;;7.60;93.50;;;;;;5084464;28;20413;-67
2021/12/08 09:19:44;;;;;;;128.75;71.35;;;8.00;93.00;;;;;;5110416;28;20035;-64
2021/12/08 09:22:25;;;;;;;128.35;70.95;;;8.30;89.60;;;;;;5110874;27;20059;-66
2021/12/08 09:25:06;;;;;;;109.63;64.97;;;8.40;90.10;;;;;;5099978;28;20480;-64
2021/12/08 09:27:50;;;;;;;96.53;58.50;;;8.70;91.00;;;;;;5112171;28;20051;-70
2021/12/08 09:30:33;;;;;;;90.15;53.97;;;9.00;91.70;;;;;;5110271;28;20020;-70
2021/12/08 09:33:28;;;;;;;83.43;51.33;;;9.30;90.60;;;;;;5110477;28;20035;-64
2021/12/08 09:36:02;;;;;;;83.72;51.58;;;9.70;90.50;;;;;;5107293;28;20374;-62
2021/12/08 09:38:33;;;;;;;97.28;57.90;;;10.00;86.40;;;;;;5112047;28;20102;-58
2021/12/08 09:41:14;;;;;;;123.35;71.32;;;10.10;83.60;;;;;;5112022;28;20062;-59
2021/12/08 09:43:45;;;;;;;106.70;62.08;;;10.20;84.60;;;;;;5109398;28;20067;-57
2021/12/08 09:46:18;;;;;;;92.88;56.63;;;10.40;80.20;;;;;;5107963;28;20031;-61
2021/12/08 09:48:46;;;;;;;92.85;53.40;;;10.50;81.80;;;;;;5112249;28;20023;-61
2021/12/08 09:51:14;;;;;;;82.60;50.92;;;10.60;79.80;;;;;;5111872;28;20099;-67
2021/12/08 09:53:43;;;;;;;68.88;42.65;;;10.70;78.10;;;;;;5111936;28;20112;-66
2021/12/08 09:56:09;;;;;;;64.22;39.58;;;10.80;75.90;;;;;;5104814;28;20540;-62
2021/12/08 09:58:37;;;;;;;58.42;37.83;;;10.70;78.60;;;;;;5100210;28;20122;-60
2021/12/08 10:01:04;;;;;;;69.53;42.13;;;10.80;80.00;;;;;;5097514;28;20028;-63
2021/12/08 10:03:32;;;;;;;81.07;49.05;;;10.80;76.20;;;;;;5110743;28;20031;-59
2021/12/08 10:06:00;;;;;;;78.65;49.97;;;10.80;77.00;;;;;;5113210;28;20031;-61
2021/12/08 10:08:26;;;;;;;102.75;62.55;;;11.00;76.50;;;;;;5096905;28;20108;-57
2021/12/08 10:10:52;;;;;;;121.45;74.55;;;11.10;76.20;;;;;;5100710;28;20103;-62
2021/12/08 10:13:18;;;;;;;142.48;88.15;;;11.40;75.30;;;;;;5113638;28;20034;-66
2021/12/08 10:15:45;;;;;;;119.25;74.65;;;11.30;74.50;;;;;;5108419;28;20046;-62
2021/12/08 10:18:11;;;;;;;106.32;65.38;;;11.40;72.30;;;;;;5100832;28;20393;-60
2021/12/08 10:20:48;;;;;;;338.65;155.07;;;11.40;72.40;;;;;;5110058;28;20369;-59
2021/12/08 10:23:20;;;;;;;242.90;122.10;;;11.40;72.80;;;;;;5105245;28;20106;-61
2021/12/08 10:25:56;;;;;;;207.88;100.95;;;11.30;72.50;;;;;;5106823;28;20464;-57
2021/12/08 10:28:32;;;;;;;147.45;78.25;;;11.30;75.40;;;;;;5112818;28;20473;-61
2021/12/08 10:31:17;;;;;;;112.90;63.65;;;11.60;71.00;;;;;;5111531;28;20355;-61
2021/12/08 10:34:02;;;;;;;66.97;38.97;;;11.60;70.20;;;;;;5110939;28;20032;-55
2021/12/08 10:36:54;;;;;;;58.08;35.47;;;11.60;69.30;;;;;;5107241;28;20066;-62
2021/12/08 10:39:20;;;;;;;57.88;35.67;;;11.20;68.60;;;;;;5096841;28;20116;-67
2021/12/08 10:42:00;;;;;;;59.65;38.03;;;10.80;70.20;;;;;;5113006;28;20063;-53
2021/12/08 10:44:39;;;;;;;52.40;32.42;;;10.80;71.20;;;;;;5109105;28;20035;-58
2021/12/08 10:47:07;;;;;;;55.88;33.55;;;10.80;71.30;;;;;;5110312;28;20047;-54
2021/12/08 10:54:50;;;;;;;37.58;23.13;;;11.00;70.10;;;;;;5112066;28;20038;-55
2021/12/08 10:57:37;;;;;;;33.78;23.00;;;11.10;71.00;;;;;;5113036;28;20481;-54
2021/12/08 11:00:22;;;;;;;28.52;18.38;;;11.10;71.20;;;;;;5110715;28;20031;-56
2021/12/08 11:03:03;;;;;;;26.35;17.52;;;11.30;68.50;;;;;;5109474;28;20054;-56
2021/12/08 11:05:36;;;;;;;39.17;23.88;;;11.00;70.90;;;;;;5110041;28;20443;-57
2021/12/08 11:08:25;;;;;;;24.15;16.83;;;11.30;71.60;;;;;;5108635;28;20026;-57
2021/12/08 11:11:01;;;;;;;28.27;18.42;;;11.40;70.00;;;;;;5110574;28;20554;-57
2021/12/08 11:13:35;;;;;;;47.50;25.42;;;11.70;69.80;;;;;;5110755;28;20031;-56
2021/12/08 11:16:06;;;;;;;31.17;21.00;;;12.00;68.20;;;;;;5111987;28;20092;-58
2021/12/08 11:18:32;;;;;;;38.13;25.02;;;11.70;66.60;;;;;;5113114;28;20028;-56
2021/12/08 11:21:03;;;;;;;35.50;22.58;;;11.70;68.40;;;;;;5109821;28;20027;-51
2021/12/08 11:23:46;;;;;;;27.98;19.00;;;11.50;66.40;;;;;;5107376;28;20032;-56
2021/12/08 11:26:23;;;;;;;26.43;17.13;;;11.30;69.00;;;;;;5100510;28;20032;-59
2021/12/08 11:29:13;;;;;;;19.45;13.75;;;11.50;67.90;;;;;;5097817;28;20276;-61
2021/12/08 11:31:45;;;;;;;24.05;15.90;;;11.40;65.70;;;;;;5089691;28;20470;-58
2021/12/08 11:34:26;;;;;;;22.17;15.32;;;11.40;67.70;;;;;;5091258;28;20103;-58
2021/12/08 11:36:58;;;;;;;18.27;11.88;;;11.60;67.80;;;;;;5090551;28;20052;-57
2021/12/08 11:39:36;;;;;;;18.23;11.98;;;11.70;65.20;;;;;;5090404;28;20024;-54
2021/12/08 11:42:13;;;;;;;20.77;13.88;;;11.80;68.30;;;;;;5090214;28;20028;-55
2021/12/08 11:44:42;;;;;;;23.40;16.35;;;12.10;66.60;;;;;;5098173;28;20115;-57
2021/12/08 11:47:11;;;;;;;23.95;16.15;;;12.30;65.00;;;;;;5103648;28;20063;-57
2021/12/08 11:49:49;;;;;;;18.60;12.63;;;12.10;65.20;;;;;;5110603;28;20031;-57
2021/12/08 11:52:20;;;;;;;15.63;10.38;;;12.20;67.70;;;;;;5110861;28;20019;-56
2021/12/08 11:54:48;;;;;;;17.33;11.98;;;12.50;65.60;;;;;;5110071;28;20028;-55
2021/12/08 11:57:24;;;;;;;29.95;18.35;;;12.70;65.00;;;;;;5111319;28;20023;-57
2021/12/08 12:00:06;;;;;;;19.73;13.40;;;12.90;64.20;;;;;;5092432;28;20039;-58
2021/12/08 12:02:40;;;;;;;49.75;30.00;;;12.70;63.40;;;;;;5110683;28;20031;-57
2021/12/08 12:05:19;;;;;;;48.08;29.40;;;12.50;64.70;;;;;;5102011;28;20031;-55
2021/12/08 12:07:46;;;;;;;40.63;26.55;;;12.40;64.80;;;;;;5112716;28;20107;-57
2021/12/08 12:10:15;;;;;;;38.45;26.00;;;12.40;65.00;;;;;;5113336;28;20027;-57
2021/12/08 12:12:42;;;;;;;40.22;26.35;;;12.40;63.90;;;;;;5111382;28;20381;-56
2021/12/08 12:15:22;;;;;;;39.03;26.23;;;12.60;66.00;;;;;;5112708;28;20031;-57
2021/12/08 12:17:48;;;;;;;42.75;29.40;;;12.50;63.10;;;;;;5113252;28;20027;-53
2021/12/08 12:20:26;;;;;;;32.97;23.80;;;12.40;63.50;;;;;;5109704;28;20496;-56
2021/12/08 12:23:19;;;;;;;27.65;18.63;;;12.50;64.10;;;;;;5093094;28;20053;-55
2021/12/08 12:26:06;;;;;;;34.75;21.60;;;12.40;62.00;;;;;;5093570;28;20028;-57
2021/12/08 12:28:34;;;;;;;38.97;26.23;;;12.40;62.70;;;;;;5092628;28;20107;-57
2021/12/08 12:31:24;;;;;;;38.78;24.95;;;12.30;62.60;;;;;;5094323;28;20024;-57
2021/12/08 12:33:51;;;;;;;40.80;25.63;;;12.40;67.30;;;;;;5093161;28;20077;-55
2021/12/08 12:36:29;;;;;;;38.08;23.13;;;12.80;64.90;;;;;;5092411;28;20055;-54
2021/12/08 12:39:17;;;;;;;39.22;22.90;;;13.20;62.80;;;;;;5092853;28;20024;-57
2021/12/08 12:41:44;;;;;;;36.47;22.88;;;13.60;62.00;;;;;;5103330;28;20035;-58
2021/12/08 12:44:28;;;;;;;32.92;22.27;;;13.80;62.50;;;;;;5097785;28;20435;-54
2021/12/08 12:47:08;;;;;;;22.48;13.80;;;13.80;62.10;;;;;;5112590;28;20020;-55
2021/12/08 12:49:39;;;;;;;23.40;14.88;;;13.60;60.30;;;;;;5099908;28;20419;-56
2021/12/08 12:52:07;;;;;;;18.40;12.43;;;13.00;61.00;;;;;;5097349;28;20027;-56
2021/12/08 12:54:33;;;;;;;16.60;11.05;;;12.60;60.70;;;;;;5093077;28;20028;-57
2021/12/08 12:57:00;;;;;;;14.65;11.15;;;12.20;61.30;;;;;;5093062;28;20525;-57
2021/12/08 12:59:46;;;;;;;19.90;12.57;;;12.10;62.40;;;;;;5092936;28;20016;-57
2021/12/08 13:02:34;;;;;;;14.57;10.73;;;11.80;63.20;;;;;;5105290;28;20035;-56
2021/12/08 13:05:11;;;;;;;17.77;11.75;;;11.70;63.70;;;;;;5115519;28;20046;-56
2021/12/08 13:07:39;;;;;;;30.33;20.55;;;11.60;63.70;;;;;;5097919;28;20435;-58
2021/12/08 13:10:11;;;;;;;25.63;18.50;;;11.80;64.50;;;;;;5097250;28;20149;-55
2021/12/08 13:12:36;;;;;;;19.25;14.75;;;11.80;64.20;;;;;;5103686;28;20036;-58
2021/12/08 13:15:14;;;;;;;18.98;14.10;;;11.90;65.00;;;;;;5109602;28;20027;-59
2021/12/08 13:18:06;;;;;;;18.70;12.77;;;12.10;65.40;;;;;;5102341;28;20042;-58
2021/12/08 13:20:42;;;;;;;12.30;9.25;;;12.60;63.90;;;;;;5105344;28;20020;-58
2021/12/08 13:23:16;;;;;;;11.73;8.43;;;12.90;62.30;;;;;;5115496;28;20024;-58
2021/12/08 13:28:19;;;;;;;22.17;15.63;;;12.40;64.50;;;;;;5115783;28;20466;-55
2021/12/08 13:30:51;;;;;;;15.57;10.95;;;12.40;64.40;;;;;;5113349;27;20110;-58
2021/12/08 13:33:29;;;;;;;14.35;10.35;;;12.10;65.10;;;;;;5111731;28;20016;-57
2021/12/08 13:35:57;;;;;;;14.15;10.02;;;11.70;64.80;;;;;;5092335;28;20139;-57
2021/12/08 13:38:23;;;;;;;16.90;12.05;;;11.80;65.30;;;;;;5092813;28;20016;-56
2021/12/08 13:40:57;;;;;;;16.23;11.63;;;11.80;64.00;;;;;;5094065;28;20020;-58
2021/12/08 13:43:41;;;;;;;21.02;14.50;;;11.60;65.20;;;;;;5093094;28;20016;-56
2021/12/08 13:46:08;;;;;;;;;;;11.60;66.00;;;;;;5094356;28;20020;-56
2021/12/08 13:48:35;;;;;;;58.35;52.00;;;11.60;65.30;;;;;;5092651;28;20438;-57
2021/12/08 13:51:15;;;;;;;78.95;63.75;;;11.30;68.30;;;;;;5092125;28;20065;-54
2021/12/08 13:53:41;;;;;;;141.20;91.65;;;11.10;68.50;;;;;;5091838;28;20427;-55
2021/12/08 13:56:07;;;;;;;214.50;134.20;;;10.80;69.10;;;;;;5092335;28;20107;-55
2021/12/08 13:58:39;;;;;;;122.55;77.05;;;10.20;71.70;;;;;;5092565;28;20020;-55
2021/12/08 14:01:05;;;;;;;164.05;112.15;;;9.40;73.70;;;;;;5092658;28;20024;-58
2021/12/08 14:03:35;;;;;;;95.50;67.22;;;8.80;77.40;;;;;;5093161;28;20095;-56
2021/12/08 14:06:02;;;;;;;128.55;86.40;;;8.50;79.30;;;;;;5094075;28;20146;-55
2021/12/08 14:08:38;;;;;;;122.18;84.57;;;8.40;82.20;;;;;;5094723;28;20415;-56
2021/12/08 14:11:10;;;;;;;157.52;105.80;;;8.40;84.40;;;;;;5094737;28;20116;-55
2021/12/08 14:13:39;;;;;;;187.27;116.03;;;8.30;88.00;;;;;;5094558;28;20058;-57
2021/12/08 14:16:06;;;;;;;148.20;88.55;;;8.20;89.60;;;;;;5094480;28;20120;-52
2021/12/08 14:18:46;;;;;;;112.28;67.13;;;8.10;90.30;;;;;;5094479;28;20024;-56
2021/12/08 14:21:21;;;;;;;108.55;69.97;;;8.10;91.40;;;;;;5094658;28;20391;-53
2021/12/08 14:23:58;;;;;;;116.07;74.50;;;7.90;92.00;;;;;;5094667;28;20077;-57
2021/12/08 14:26:26;;;;;;;109.35;69.57;;;7.80;93.10;;;;;;5094689;28;20032;-56
2021/12/08 14:28:55;;;;;;;134.07;80.75;;;7.80;94.50;;;;;;5094246;28;20024;-57
2021/12/08 14:31:27;;;;;;;192.40;98.90;;;7.70;95.20;;;;;;5094204;28;20027;-55
2021/12/08 14:33:57;;;;;;;148.50;86.30;;;7.70;95.50;;;;;;5094057;28;20048;-57
2021/12/08 14:37:03;;;;;;;139.10;81.13;;;7.70;95.60;;;;;;5094187;28;20454;-56
2021/12/08 14:39:38;;;;;;;168.20;90.00;;;7.50;97.60;;;;;;5085633;28;20047;-56
2021/12/08 14:42:07;;;;;;;166.77;85.80;;;7.50;97.90;;;;;;5094053;28;20020;-58
2021/12/08 14:44:42;;;;;;;167.13;80.22;;;7.60;96.50;;;;;;5093544;28;20028;-58
2021/12/08 14:47:12;;;;;;;181.18;92.97;;;7.70;95.30;;;;;;5094243;28;20035;-57
2021/12/08 14:49:41;;;;;;;203.43;97.35;;;7.90;95.40;;;;;;5093846;28;20028;-58
2021/12/08 14:52:11;;;;;;;193.20;97.13;;;7.80;96.60;;;;;;5094110;28;20032;-56
2021/12/08 14:54:46;;;;;;;219.20;108.03;;;7.60;97.30;;;;;;5093691;28;20027;-58
2021/12/08 14:57:31;;;;;;;235.13;115.55;;;7.60;97.90;;;;;;5093729;28;20021;-56
2021/12/08 15:00:18;;;;;;;194.63;89.22;;;7.30;99.90;;;;;;5094003;28;20101;-57
2021/12/08 15:02:56;;;;;;;203.60;97.30;;;7.30;97.20;;;;;;5093626;28;20106;-56
2021/12/08 15:05:22;;;;;;;182.07;91.30;;;7.30;97.90;;;;;;5093813;28;20539;-56
2021/12/08 15:07:49;;;;;;;204.38;102.45;;;7.50;97.20;;;;;;5093692;28;20020;-56
2021/12/08 15:10:15;;;;;;;240.80;121.65;;;7.40;97.90;;;;;;5093847;28;20028;-57
2021/12/08 15:12:43;;;;;;;307.45;159.63;;;7.50;97.60;;;;;;5093513;28;20028;-58
2021/12/08 15:15:24;;;;;;;318.35;154.27;;;7.20;98.70;;;;;;5093444;28;20063;-57
2021/12/08 15:18:04;;;;;;;379.02;190.13;;;7.10;99.70;;;;;;5093268;28;20048;-57
2021/12/08 15:20:39;;;;;;;350.48;173.65;;;6.80;99.90;;;;;;5093549;28;20490;-57
2021/12/08 15:23:12;;;;;;;396.67;182.32;;;6.60;99.90;;;;;;5093719;28;20119;-56
2021/12/08 15:25:43;;;;;;;360.15;166.27;;;6.50;99.90;;;;;;5093601;28;20028;-58
2021/12/08 15:28:12;;;;;;;297.05;144.75;;;6.40;99.90;;;;;;5093397;28;20494;-57
2021/12/08 15:30:56;;;;;;;303.45;146.20;;;6.50;99.90;;;;;;5093528;28;20051;-55
2021/12/08 15:33:23;;;;;;;402.50;208.23;;;6.60;99.90;;;;;;5093208;28;20031;-57
2021/12/08 15:35:51;;;;;;;493.65;285.00;;;6.40;99.90;;;;;;5092930;28;20051;-58
2021/12/08 15:38:18;;;;;;;510.27;299.95;;;6.20;99.90;;;;;;5093309;28;20519;-56
2021/12/08 15:40:47;;;;;;;571.75;325.83;;;5.90;99.90;;;;;;5093550;28;20016;-58
2021/12/08 15:43:15;;;;;;;601.75;343.40;;;5.80;99.90;;;;;;5093531;28;20032;-58
2021/12/08 15:45:44;;;;;;;640.63;371.25;;;5.60;99.90;;;;;;5093330;28;20073;-57
2021/12/08 15:48:11;;;;;;;623.10;349.17;;;5.50;99.90;;;;;;5093223;28;20412;-56
2021/12/08 15:50:43;;;;;;;554.58;305.05;;;5.50;99.90;;;;;;5093107;28;20024;-55
2021/12/08 15:53:12;;;;;;;503.45;280.40;;;5.50;99.90;;;;;;5093238;28;20073;-54
2021/12/08 15:55:38;;;;;;;448.10;236.82;;;5.50;99.90;;;;;;5093025;28;20035;-58
2021/12/08 15:58:14;;;;;;;418.23;205.48;;;5.40;99.90;;;;;;5096334;28;20107;-57
2021/12/08 16:00:39;;;;;;;379.38;181.13;;;5.30;99.90;;;;;;5097251;28;20035;-57
2021/12/08 16:03:05;;;;;;;250.48;126.45;;;5.30;99.90;;;;;;5097123;28;20020;-54
2021/12/08 16:05:31;;;;;;;219.18;108.25;;;5.50;99.90;;;;;;5097373;28;20035;-58
2021/12/08 16:07:59;;;;;;;211.25;106.70;;;5.60;99.90;;;;;;5097341;28;20103;-56
2021/12/08 16:10:30;;;;;;;177.75;90.15;;;5.80;99.90;;;;;;5097232;28;20031;-56
2021/12/08 16:13:27;;;;;;;165.35;84.57;;;6.00;99.90;;;;;;5096978;28;20035;-56
2021/12/08 16:15:56;;;;;;;226.43;104.05;;;6.30;99.90;;;;;;5084277;28;20507;-56
2021/12/08 16:18:29;;;;;;;162.45;79.85;;;6.40;99.90;;;;;;5096928;28;20042;-57
2021/12/08 16:20:56;;;;;;;217.07;105.38;;;6.40;99.90;;;;;;5096775;28;20034;-57
2021/12/08 16:23:22;;;;;;;217.77;98.47;;;6.50;99.90;;;;;;5096815;28;20024;-57
2021/12/08 16:25:49;;;;;;;181.32;90.88;;;6.50;99.90;;;;;;5097056;28;20541;-57
2021/12/08 16:28:15;;;;;;;222.15;103.00;;;6.50;99.90;;;;;;5096663;28;20020;-56
2021/12/08 16:30:43;;;;;;;221.85;100.47;;;6.50;99.90;;;;;;5096740;28;20070;-56
2021/12/08 16:33:09;;;;;;;211.00;100.22;;;6.50;99.90;;;;;;5096583;28;20396;-58
2021/12/08 16:35:36;;;;;;;175.40;87.05;;;6.50;99.90;;;;;;5096266;28;20035;-56
2021/12/08 16:38:02;;;;;;;230.82;110.57;;;6.40;99.90;;;;;;5096480;28;20028;-54
2021/12/08 16:43:16;;;;;;;253.63;120.47;;;6.50;99.90;;;;;;5096678;28;20450;-57
2021/12/08 16:46:01;;;;;;;240.55;116.13;;;6.50;99.90;;;;;;5096151;28;20059;-57
2021/12/08 16:48:29;;;;;;;234.05;117.40;;;6.50;99.90;;;;;;5096275;28;20044;-55
2021/12/08 16:50:55;;;;;;;192.63;97.50;;;6.30;99.90;;;;;;5096324;28;20040;-58
2021/12/08 16:53:21;;;;;;;191.77;96.18;;;6.20;99.90;;;;;;5096216;28;20028;-56
2021/12/08 16:55:48;;;;;;;195.93;92.57;;;6.10;99.90;;;;;;5096326;28;20077;-57
2021/12/08 16:58:14;;;;;;;213.13;104.82;;;6.10;99.90;;;;;;5095881;28;20024;-54
2021/12/08 17:00:43;;;;;;;219.52;103.40;;;6.10;99.90;;;;;;5096014;28;20106;-57
2021/12/08 17:03:13;;;;;;;293.85;144.50;;;6.00;99.90;;;;;;5095958;28;20020;-56
2021/12/08 17:05:41;;;;;;;220.15;109.60;;;5.90;99.90;;;;;;5096270;28;20024;-56
2021/12/08 17:08:07;;;;;;;253.10;124.90;;;5.70;99.90;;;;;;5095442;28;20050;-55
2021/12/08 17:10:35;;;;;;;271.75;135.98;;;5.70;99.90;;;;;;5096059;28;20351;-54
2021/12/08 17:13:02;;;;;;;248.52;128.20;;;5.70;99.90;;;;;;5096024;28;20023;-55
2021/12/08 17:15:27;;;;;;;261.50;132.35;;;5.50;99.90;;;;;;5095442;28;20032;-55
2021/12/08 17:17:54;;;;;;;203.52;105.43;;;5.40;99.90;;;;;;5095699;28;20035;-56
2021/12/08 17:20:20;;;;;;;201.93;104.80;;;5.30;99.90;;;;;;5095948;28;20031;-54
2021/12/08 17:22:46;;;;;;;208.25;106.22;;;5.40;99.90;;;;;;5095618;28;20020;-55
2021/12/08 17:25:12;;;;;;;234.95;120.50;;;5.50;99.90;;;;;;5095491;28;20020;-52
2021/12/08 17:27:38;;;;;;;228.70;118.10;;;5.40;99.90;;;;;;5095288;28;20027;-54
2021/12/08 17:30:07;;;;;;;237.40;123.45;;;5.20;99.90;;;;;;5095754;28;20103;-52
2021/12/08 17:32:33;;;;;;;197.38;102.97;;;5.10;99.90;;;;;;5095629;28;20040;-57
2021/12/08 17:34:59;;;;;;;181.57;93.78;;;5.00;99.90;;;;;;5095472;28;20079;-52
2021/12/08 17:37:25;;;;;;;203.82;104.97;;;5.00;99.90;;;;;;5095362;28;20027;-57
2021/12/08 17:39:51;;;;;;;170.52;89.22;;;4.90;99.90;;;;;;5095527;28;20039;-53
2021/12/08 17:42:17;;;;;;;180.82;92.20;;;4.90;99.90;;;;;;5095071;28;20051;-56
2021/12/08 17:44:43;;;;;;;161.80;84.13;;;4.90;99.90;;;;;;5095279;28;20537;-57
2021/12/08 17:47:09;;;;;;;164.68;84.40;;;5.00;99.90;;;;;;5094951;28;20052;-57
2021/12/08 17:49:35;;;;;;;170.38;81.80;;;5.10;99.90;;;;;;5095067;28;20020;-54
2021/12/08 17:52:01;;;;;;;177.85;89.72;;;5.20;99.90;;;;;;5095007;28;20024;-53
2021/12/08 17:54:27;;;;;;;138.40;67.40;;;5.20;99.90;;;;;;5095110;28;20024;-55
2021/12/08 17:56:53;;;;;;;144.57;75.40;;;5.20;99.90;;;;;;5094637;28;20020;-58
2021/12/08 17:59:22;;;;;;;138.80;65.90;;;5.30;99.90;;;;;;5094776;28;20543;-54
2021/12/08 18:01:48;;;;;;;125.25;63.55;;;5.30;99.90;;;;;;5094701;28;20028;-56
2021/12/08 18:04:15;;;;;;;115.80;60.10;;;5.30;99.90;;;;;;5095030;28;20031;-55
2021/12/08 18:06:42;;;;;;;126.93;63.08;;;5.30;99.90;;;;;;5095034;28;20028;-57
2021/12/08 18:09:12;;;;;;;159.60;79.70;;;5.30;99.90;;;;;;5094931;28;20024;-57
2021/12/08 18:11:41;;;;;;;137.90;72.47;;;5.20;99.90;;;;;;5094762;28;20409;-55
2021/12/08 18:14:08;;;;;;;163.75;83.55;;;5.20;99.90;;;;;;5094657;28;20490;-58
2021/12/08 18:16:34;;;;;;;195.23;93.28;;;5.00;99.90;;;;;;5094423;28;20024;-57
2021/12/08 18:19:00;;;;;;;186.32;91.07;;;4.80;99.90;;;;;;5094048;28;20031;-57
2021/12/08 18:21:28;;;;;;;181.93;89.22;;;4.60;99.90;;;;;;5094258;28;20404;-58
2021/12/08 18:23:54;;;;;;;162.43;80.68;;;4.50;99.90;;;;;;5094658;28;20028;-54
2021/12/08 18:26:20;;;;;;;192.85;87.43;;;4.50;99.90;;;;;;5094508;28;20035;-57
2021/12/08 18:28:46;;;;;;;158.30;77.28;;;4.50;99.90;;;;;;5094438;28;20024;-55
2021/12/08 18:31:12;;;;;;;165.82;80.75;;;4.50;99.90;;;;;;5094363;28;20030;-57
2021/12/08 18:33:38;;;;;;;190.27;96.93;;;4.50;99.90;;;;;;5094204;28;20028;-57
2021/12/08 18:36:16;;;;;;;223.65;104.03;;;4.30;99.90;;;;;;5093822;28;20055;-55
2021/12/08 18:38:43;;;;;;;218.02;103.78;;;4.10;99.90;;;;;;5094110;28;20024;-57
2021/12/08 18:41:15;;;;;;;186.38;90.35;;;3.90;99.90;;;;;;5093968;28;20024;-54
2021/12/08 18:43:43;;;;;;;171.18;84.90;;;3.90;99.90;;;;;;5094106;28;20073;-57
2021/12/08 18:46:11;;;;;;;175.55;86.80;;;4.10;99.90;;;;;;5093975;28;20496;-57
2021/12/08 18:48:39;;;;;;;174.13;87.13;;;4.20;99.90;;;;;;5094142;28;20081;-57
2021/12/08 18:51:09;;;;;;;130.68;64.20;;;4.30;99.90;;;;;;5093895;28;20055;-56
2021/12/08 18:53:38;;;;;;;129.45;67.47;;;4.40;99.90;;;;;;5094107;28;20381;-56
2021/12/08 18:56:04;;;;;;;116.13;57.25;;;4.50;99.90;;;;;;5093555;28;20031;-56
2021/12/08 18:58:30;;;;;;;115.90;59.22;;;4.60;99.90;;;;;;5093833;28;20067;-57
2021/12/08 19:00:57;;;;;;;129.68;61.60;;;4.60;99.90;;;;;;5093695;28;20406;-57
2021/12/08 19:03:23;;;;;;;130.85;64.78;;;4.60;99.90;;;;;;5093697;28;20019;-55
2021/12/08 19:05:50;;;;;;;162.02;78.55;;;4.60;99.90;;;;;;5093676;28;20561;-56
2021/12/08 19:08:17;;;;;;;136.30;65.68;;;4.60;99.90;;;;;;5093586;28;20045;-57
2021/12/08 19:10:44;;;;;;;161.75;77.05;;;4.60;99.90;;;;;;5093411;28;20024;-57
2021/12/08 19:13:10;;;;;;;197.00;98.50;;;4.50;99.90;;;;;;5093888;28;20119;-56
2021/12/08 19:15:37;;;;;;;213.40;105.82;;;4.30;99.90;;;;;;5092226;28;20099;-57
2021/12/08 19:18:03;;;;;;;222.13;105.93;;;4.20;99.90;;;;;;5093770;28;20419;-58
2021/12/08 19:20:29;;;;;;;186.65;91.53;;;4.00;99.90;;;;;;5093585;28;20424;-55
2021/12/08 19:22:55;;;;;;;184.55;87.30;;;4.00;99.90;;;;;;5093436;28;20028;-57
2021/12/08 19:25:23;;;;;;;163.70;79.93;;;4.10;99.90;;;;;;5093500;28;20052;-57
2021/12/08 19:27:49;;;;;;;175.90;85.25;;;4.20;99.90;;;;;;5093366;28;20032;-57
2021/12/08 19:30:16;;;;;;;162.70;75.80;;;4.20;99.90;;;;;;5093464;28;20016;-58
2021/12/08 19:32:43;;;;;;;208.55;95.65;;;4.20;99.90;;;;;;5093622;28;20052;-57
2021/12/08 19:35:10;;;;;;;204.75;97.18;;;4.20;99.90;;;;;;5092883;28;20453;-57
2021/12/08 19:37:35;;;;;;;200.77;94.75;;;4.10;99.90;;;;;;5093187;28;20052;-57
2021/12/08 19:40:03;;;;;;;218.48;103.60;;;3.90;99.90;;;;;;5093136;28;20077;-57
2021/12/08 19:42:29;;;;;;;259.67;120.63;;;3.80;99.90;;;;;;5093292;28;20024;-55
2021/12/08 19:44:57;;;;;;;252.25;121.22;;;3.80;99.90;;;;;;5093171;28;20081;-55
2021/12/08 19:47:22;;;;;;;241.32;113.70;;;3.60;99.90;;;;;;5093186;28;20068;-55
2021/12/08 19:49:48;;;;;;;255.55;115.47;;;3.40;99.90;;;;;;5093228;28;20044;-57
2021/12/08 19:52:14;;;;;;;238.98;105.57;;;3.30;99.90;;;;;;5093236;28;20052;-53
2021/12/08 19:54:43;;;;;;;219.95;102.68;;;3.20;99.90;;;;;;5093039;28;20028;-57
2021/12/08 19:57:09;;;;;;;141.50;67.63;;;3.20;99.90;;;;;;5093351;28;20552;-57
2021/12/08 19:59:35;;;;;;;116.25;54.55;;;3.30;99.90;;;;;;5093115;28;20067;-57
2021/12/08 20:02:01;;;;;;;84.45;41.22;;;3.40;99.90;;;;;;5093009;28;20020;-57
2021/12/08 20:04:28;;;;;;;95.65;46.40;;;3.70;99.90;;;;;;5093053;28;20059;-56
2021/12/08 20:06:55;;;;;;;107.38;49.60;;;4.00;99.90;;;;;;5092823;28;20149;-56
2021/12/08 20:09:21;;;;;;;117.75;55.45;;;4.10;99.90;;;;;;5092956;28;20036;-55
2021/12/08 20:11:48;;;;;;;97.63;48.35;;;4.20;99.90;;;;;;5093268;28;20016;-57
2021/12/08 20:14:17;;;;;;;96.28;48.33;;;4.30;99.90;;;;;;5093048;28;20035;-57
2021/12/08 20:16:43;;;;;;;105.18;52.03;;;4.40;99.90;;;;;;5093092;28;20032;-58
2021/12/08 20:19:12;;;;;;;116.35;53.30;;;4.50;99.90;;;;;;5092954;28;20376;-55
2021/12/08 20:21:42;;;;;;;94.22;45.92;;;4.50;99.90;;;;;;5093063;28;20032;-57
2021/12/08 20:24:09;;;;;;;86.15;41.67;;;4.50;99.90;;;;;;5092826;28;20032;-55
2021/12/08 20:26:36;;;;;;;77.82;40.60;;;4.60;99.90;;;;;;5093206;28;20115;-57
2021/12/08 20:29:02;;;;;;;76.78;39.67;;;4.80;99.90;;;;;;5093193;28;20104;-55
2021/12/08 20:31:28;;;;;;;119.60;56.33;;;4.80;99.90;;;;;;5092769;28;20016;-57
2021/12/08 20:33:55;;;;;;;89.22;42.58;;;4.90;99.90;;;;;;5093223;28;20038;-57